sensor_id;sensor_type;location;lat;lon;timestamp;pressure;altitude;pressure_sealevel;temperature;humidity
28312;BME280;15572;48.810;9.148;2023-03-13T00:00:53;97680.03;;;6.62;100.00
28312;BME280;15572;48.810;9.148;2023-03-13T00:05:54;97675.69;;;6.61;100.00
28312;BME280;15572;48.810;9.148;2023-03-13T00:10:51;97674.00;;;6.60;100.00
28312;BME280;15572;48.810;9.148;2023-03-13T00:15:49;97669.63;;;6.59;100.00
28312;BME280;15572;48.810;9.148;2023-03-13T00:20:45;97665.94;;;6.60;100.00
28312;BME280;15572;48.810;9.148;2023-03-13T00:25:43;97664.44;;;6.58;100.00
28312;BME280;15572;48.810;9.148;2023-03-13T00:30:39;97656.38;;;6.58;100.00
28312;BME280;15572;48.810;9.148;2023-03-13T00:35:37;97648.00;;;6.53;100.00
28312;BME280;15572;48.810;9.148;2023-03-13T00:40:33;97646.94;;;6.62;100.00
28312;BME280;15572;48.810;9.148;2023-03-13T00:45:30;97637.66;;;6.94;100.00
28312;BME280;15572;48.810;9.148;2023-03-13T00:50:26;97637.16;;;7.19;100.00
28312;BME280;15572;48.810;9.148;2023-03-13T00:55:24;97630.78;;;7.42;100.00
28312;BME280;15572;48.810;9.148;2023-03-13T01:00:21;97623.84;;;7.54;100.00
28312;BME280;15572;48.810;9.148;2023-03-13T01:05:17;97616.28;;;7.64;100.00
28312;BME280;15572;48.810;9.148;2023-03-13T01:10:14;97600.84;;;7.73;100.00
28312;BME280;15572;48.810;9.148;2023-03-13T01:15:11;97596.53;;;7.78;100.00
28312;BME280;15572;48.810;9.148;2023-03-13T01:20:09;97595.97;;;7.83;100.00
28312;BME280;15572;48.810;9.148;2023-03-13T01:25:07;97581.25;;;7.85;100.00
28312;BME280;15572;48.810;9.148;2023-03-13T01:30:04;97574.00;;;7.86;100.00
28312;BME280;15572;48.810;9.148;2023-03-13T01:35:03;97566.13;;;7.84;100.00
28312;BME280;15572;48.810;9.148;2023-03-13T01:39:59;97556.56;;;7.82;100.00
28312;BME280;15572;48.810;9.148;2023-03-13T01:44:56;97547.88;;;7.80;100.00
28312;BME280;15572;48.810;9.148;2023-03-13T01:49:53;97538.72;;;7.81;100.00
28312;BME280;15572;48.810;9.148;2023-03-13T01:54:53;97523.38;;;7.81;100.00
28312;BME280;15572;48.810;9.148;2023-03-13T01:59:53;97519.84;;;7.81;100.00
28312;BME280;15572;48.810;9.148;2023-03-13T02:04:54;97502.06;;;7.80;100.00
28312;BME280;15572;48.810;9.148;2023-03-13T02:09:54;97504.75;;;7.80;100.00
28312;BME280;15572;48.810;9.148;2023-03-13T02:14:51;97496.44;;;7.81;100.00
28312;BME280;15572;48.810;9.148;2023-03-13T02:19:50;97486.94;;;7.85;100.00
28312;BME280;15572;48.810;9.148;2023-03-13T02:24:55;97490.53;;;7.92;100.00
28312;BME280;15572;48.810;9.148;2023-03-13T02:29:53;97487.44;;;7.95;100.00
28312;BME280;15572;48.810;9.148;2023-03-13T02:34:53;97474.78;;;7.96;100.00
28312;BME280;15572;48.810;9.148;2023-03-13T02:39:51;97456.13;;;7.94;100.00
28312;BME280;15572;48.810;9.148;2023-03-13T02:44:47;97446.97;;;7.89;100.00
28312;BME280;15572;48.810;9.148;2023-03-13T02:49:46;97429.97;;;7.88;100.00
28312;BME280;15572;48.810;9.148;2023-03-13T02:54:47;97421.22;;;7.86;100.00
28312;BME280;15572;48.810;9.148;2023-03-13T02:59:46;97418.88;;;8.04;100.00
28312;BME280;15572;48.810;9.148;2023-03-13T03:04:42;97397.34;;;8.18;100.00
28312;BME280;15572;48.810;9.148;2023-03-13T03:09:40;97399.97;;;8.32;100.00
28312;BME280;15572;48.810;9.148;2023-03-13T03:14:37;97394.59;;;8.45;100.00
28312;BME280;15572;48.810;9.148;2023-03-13T03:19:34;97378.69;;;8.64;100.00
28312;BME280;15572;48.810;9.148;2023-03-13T03:24:30;97383.88;;;8.72;100.00
28312;BME280;15572;48.810;9.148;2023-03-13T03:29:28;97385.56;;;8.73;100.00
28312;BME280;15572;48.810;9.148;2023-03-13T03:34:24;97389.09;;;8.73;100.00
28312;BME280;15572;48.810;9.148;2023-03-13T03:39:21;97374.97;;;8.78;100.00
28312;BME280;15572;48.810;9.148;2023-03-13T03:44:17;97364.38;;;8.83;100.00
28312;BME280;15572;48.810;9.148;2023-03-13T03:49:15;97370.63;;;8.90;100.00
28312;BME280;15572;48.810;9.148;2023-03-13T03:54:11;97363.19;;;9.05;100.00
28312;BME280;15572;48.810;9.148;2023-03-13T03:59:08;97368.16;;;9.15;100.00
28312;BME280;15572;48.810;9.148;2023-03-13T04:04:04;97368.59;;;9.38;100.00
28312;BME280;15572;48.810;9.148;2023-03-13T04:09:02;97351.91;;;9.74;100.00
28312;BME280;15572;48.810;9.148;2023-03-13T04:13:59;97351.38;;;10.10;100.00
28312;BME280;15572;48.810;9.148;2023-03-13T04:18:55;97329.94;;;10.60;100.00
28312;BME280;15572;48.810;9.148;2023-03-13T04:23:52;97331.06;;;11.08;100.00
28312;BME280;15572;48.810;9.148;2023-03-13T04:28:49;97337.28;;;11.15;100.00
28312;BME280;15572;48.810;9.148;2023-03-13T04:33:46;97329.81;;;11.35;100.00
28312;BME280;15572;48.810;9.148;2023-03-13T04:38:42;97328.09;;;11.59;100.00
28312;BME280;15572;48.810;9.148;2023-03-13T04:43:39;97330.22;;;11.57;100.00
28312;BME280;15572;48.810;9.148;2023-03-13T04:48:37;97336.34;;;11.71;100.00
28312;BME280;15572;48.810;9.148;2023-03-13T04:53:33;97329.53;;;11.87;100.00
28312;BME280;15572;48.810;9.148;2023-03-13T04:58:30;97309.47;;;11.69;100.00
28312;BME280;15572;48.810;9.148;2023-03-13T05:03:26;97338.06;;;11.65;100.00
28312;BME280;15572;48.810;9.148;2023-03-13T05:08:24;97317.44;;;11.64;100.00
28312;BME280;15572;48.810;9.148;2023-03-13T05:13:20;97322.63;;;11.66;100.00
28312;BME280;15572;48.810;9.148;2023-03-13T05:18:17;97308.91;;;11.61;100.00
28312;BME280;15572;48.810;9.148;2023-03-13T05:23:13;97331.00;;;11.64;100.00
28312;BME280;15572;48.810;9.148;2023-03-13T05:28:11;97331.91;;;11.58;100.00
28312;BME280;15572;48.810;9.148;2023-03-13T05:33:07;97333.41;;;11.72;100.00
28312;BME280;15572;48.810;9.148;2023-03-13T05:38:04;97306.28;;;11.79;100.00
28312;BME280;15572;48.810;9.148;2023-03-13T05:43:00;97289.94;;;11.86;100.00
28312;BME280;15572;48.810;9.148;2023-03-13T05:47:58;97314.78;;;11.82;100.00
28312;BME280;15572;48.810;9.148;2023-03-13T05:52:55;97312.75;;;11.96;100.00
28312;BME280;15572;48.810;9.148;2023-03-13T05:57:51;97305.06;;;11.93;100.00
28312;BME280;15572;48.810;9.148;2023-03-13T06:02:48;97293.84;;;11.90;100.00
28312;BME280;15572;48.810;9.148;2023-03-13T06:07:45;97308.31;;;11.84;100.00
28312;BME280;15572;48.810;9.148;2023-03-13T06:12:44;97317.50;;;12.01;100.00
28312;BME280;15572;48.810;9.148;2023-03-13T06:17:47;97308.75;;;12.17;100.00
28312;BME280;15572;48.810;9.148;2023-03-13T06:22:43;97308.81;;;12.10;100.00
28312;BME280;15572;48.810;9.148;2023-03-13T06:27:41;97322.91;;;12.19;100.00
28312;BME280;15572;48.810;9.148;2023-03-13T06:32:37;97318.69;;;12.23;100.00
28312;BME280;15572;48.810;9.148;2023-03-13T06:37:34;97312.78;;;12.26;100.00
28312;BME280;15572;48.810;9.148;2023-03-13T06:42:30;97302.09;;;12.31;100.00
28312;BME280;15572;48.810;9.148;2023-03-13T06:47:29;97312.94;;;12.31;100.00
28312;BME280;15572;48.810;9.148;2023-03-13T06:52:26;97317.31;;;12.32;100.00
28312;BME280;15572;48.810;9.148;2023-03-13T06:57:22;97333.47;;;12.27;100.00
28312;BME280;15572;48.810;9.148;2023-03-13T07:02:19;97326.50;;;12.31;100.00
28312;BME280;15572;48.810;9.148;2023-03-13T07:07:16;97327.69;;;12.35;100.00
28312;BME280;15572;48.810;9.148;2023-03-13T07:12:13;97331.31;;;12.29;100.00
28312;BME280;15572;48.810;9.148;2023-03-13T07:17:09;97322.34;;;12.47;100.00
28312;BME280;15572;48.810;9.148;2023-03-13T07:22:06;97323.50;;;12.39;100.00
28312;BME280;15572;48.810;9.148;2023-03-13T07:27:04;97336.59;;;12.42;100.00
28312;BME280;15572;48.810;9.148;2023-03-13T07:32:01;97321.16;;;12.43;100.00
28312;BME280;15572;48.810;9.148;2023-03-13T07:36:57;97317.13;;;12.45;100.00
28312;BME280;15572;48.810;9.148;2023-03-13T07:41:53;97310.66;;;12.46;100.00
28312;BME280;15572;48.810;9.148;2023-03-13T07:46:51;97306.72;;;12.60;100.00
28312;BME280;15572;48.810;9.148;2023-03-13T07:51:48;97288.63;;;12.54;100.00
28312;BME280;15572;48.810;9.148;2023-03-13T07:56:45;97290.81;;;12.76;100.00
28312;BME280;15572;48.810;9.148;2023-03-13T08:01:41;97278.78;;;12.83;100.00
28312;BME280;15572;48.810;9.148;2023-03-13T08:06:40;97273.72;;;12.87;100.00
28312;BME280;15572;48.810;9.148;2023-03-13T08:11:37;97261.56;;;13.01;100.00
28312;BME280;15572;48.810;9.148;2023-03-13T08:16:34;97245.69;;;13.16;100.00
28312;BME280;15572;48.810;9.148;2023-03-13T08:21:32;97244.84;;;13.39;100.00
28312;BME280;15572;48.810;9.148;2023-03-13T08:26:30;97237.28;;;13.53;100.00
28312;BME280;15572;48.810;9.148;2023-03-13T08:31:28;97244.03;;;13.62;99.91
28312;BME280;15572;48.810;9.148;2023-03-13T08:36:27;97253.78;;;13.74;98.04
28312;BME280;15572;48.810;9.148;2023-03-13T08:41:26;97240.06;;;13.81;98.00
28312;BME280;15572;48.810;9.148;2023-03-13T08:46:25;97241.13;;;13.91;96.37
28312;BME280;15572;48.810;9.148;2023-03-13T08:51:22;97241.91;;;14.04;95.59
28312;BME280;15572;48.810;9.148;2023-03-13T08:56:21;97254.78;;;14.08;92.92
28312;BME280;15572;48.810;9.148;2023-03-13T09:01:19;97247.66;;;14.19;92.16
28312;BME280;15572;48.810;9.148;2023-03-13T09:06:17;97236.16;;;14.28;90.09
28312;BME280;15572;48.810;9.148;2023-03-13T09:11:15;97252.00;;;14.31;89.29
28312;BME280;15572;48.810;9.148;2023-03-13T09:16:13;97245.59;;;14.38;89.15
28312;BME280;15572;48.810;9.148;2023-03-13T09:21:12;97229.13;;;14.44;88.58
28312;BME280;15572;48.810;9.148;2023-03-13T09:26:11;97232.13;;;14.59;88.22
28312;BME280;15572;48.810;9.148;2023-03-13T09:31:09;97239.06;;;14.67;87.33
28312;BME280;15572;48.810;9.148;2023-03-13T09:36:07;97248.72;;;14.74;86.55
28312;BME280;15572;48.810;9.148;2023-03-13T09:41:18;97251.88;;;14.66;87.67
28312;BME280;15572;48.810;9.148;2023-03-13T09:46:18;97241.97;;;14.77;87.44
28312;BME280;15572;48.810;9.148;2023-03-13T09:51:22;97242.97;;;14.71;85.50
28312;BME280;15572;48.810;9.148;2023-03-13T09:56:24;97229.84;;;15.01;85.76
28312;BME280;15572;48.810;9.148;2023-03-13T10:01:25;97218.28;;;15.28;81.46
28312;BME280;15572;48.810;9.148;2023-03-13T10:06:24;97217.63;;;15.21;81.65
28312;BME280;15572;48.810;9.148;2023-03-13T10:11:26;97219.03;;;15.23;81.00
28312;BME280;15572;48.810;9.148;2023-03-13T10:16:27;97205.97;;;15.25;80.05
28312;BME280;15572;48.810;9.148;2023-03-13T10:21:31;97203.06;;;15.65;76.22
28312;BME280;15572;48.810;9.148;2023-03-13T10:26:33;97197.34;;;15.88;74.61
28312;BME280;15572;48.810;9.148;2023-03-13T10:31:31;97188.03;;;16.33;72.45
28312;BME280;15572;48.810;9.148;2023-03-13T10:36:38;97192.75;;;16.64;70.42
28312;BME280;15572;48.810;9.148;2023-03-13T10:41:37;97183.34;;;16.82;68.89
28312;BME280;15572;48.810;9.148;2023-03-13T10:46:34;97178.34;;;16.74;68.55
28312;BME280;15572;48.810;9.148;2023-03-13T10:51:37;97164.13;;;16.72;68.06
28312;BME280;15572;48.810;9.148;2023-03-13T10:56:34;97164.28;;;16.92;66.65
28312;BME280;15572;48.810;9.148;2023-03-13T11:01:40;97152.22;;;17.25;65.88
28312;BME280;15572;48.810;9.148;2023-03-13T11:06:39;97155.81;;;17.31;65.38
28312;BME280;15572;48.810;9.148;2023-03-13T11:11:43;97155.88;;;17.41;65.04
28312;BME280;15572;48.810;9.148;2023-03-13T11:16:45;97146.81;;;17.35;64.58
28312;BME280;15572;48.810;9.148;2023-03-13T11:21:49;97139.66;;;17.76;63.02
28312;BME280;15572;48.810;9.148;2023-03-13T11:26:56;97114.56;;;17.99;62.45
28312;BME280;15572;48.810;9.148;2023-03-13T11:31:58;97101.00;;;18.96;58.23
28312;BME280;15572;48.810;9.148;2023-03-13T11:36:59;97092.47;;;19.12;56.12
28312;BME280;15572;48.810;9.148;2023-03-13T11:41:59;97074.28;;;19.37;55.55
28312;BME280;15572;48.810;9.148;2023-03-13T11:47:09;97058.69;;;19.96;53.62
28312;BME280;15572;48.810;9.148;2023-03-13T11:52:14;97032.16;;;20.21;52.11
28312;BME280;15572;48.810;9.148;2023-03-13T11:57:14;97022.63;;;19.64;52.82
28312;BME280;15572;48.810;9.148;2023-03-13T12:02:20;97015.16;;;19.74;53.78
28312;BME280;15572;48.810;9.148;2023-03-13T12:07:24;97005.78;;;20.19;52.66
28312;BME280;15572;48.810;9.148;2023-03-13T12:12:32;97001.69;;;19.73;52.78
28312;BME280;15572;48.810;9.148;2023-03-13T12:17:36;96978.38;;;19.75;52.89
28312;BME280;15572;48.810;9.148;2023-03-13T12:22:36;96969.41;;;19.60;53.40
28312;BME280;15572;48.810;9.148;2023-03-13T12:27:37;96943.16;;;19.83;52.20
28312;BME280;15572;48.810;9.148;2023-03-13T12:32:38;96935.38;;;19.95;51.32
28312;BME280;15572;48.810;9.148;2023-03-13T12:37:38;96916.03;;;20.10;51.46
28312;BME280;15572;48.810;9.148;2023-03-13T12:42:41;96892.13;;;20.68;49.61
28312;BME280;15572;48.810;9.148;2023-03-13T12:47:57;96881.13;;;20.68;49.43
28312;BME280;15572;48.810;9.148;2023-03-13T12:53:28;96860.69;;;21.22;46.94
28312;BME280;15572;48.810;9.148;2023-03-13T12:58:40;96832.44;;;21.16;47.46
28312;BME280;15572;48.810;9.148;2023-03-13T13:03:51;96825.97;;;21.45;45.17
28312;BME280;15572;48.810;9.148;2023-03-13T13:09:05;96807.97;;;21.33;45.73
28312;BME280;15572;48.810;9.148;2023-03-13T13:14:21;96805.66;;;21.40;45.45
28312;BME280;15572;48.810;9.148;2023-03-13T13:19:53;96797.63;;;21.44;45.13
28312;BME280;15572;48.810;9.148;2023-03-13T13:24:51;96789.84;;;20.90;46.16
28312;BME280;15572;48.810;9.148;2023-03-13T13:29:54;96752.53;;;20.65;46.67
28312;BME280;15572;48.810;9.148;2023-03-13T13:35:00;96767.31;;;20.69;47.32
28312;BME280;15572;48.810;9.148;2023-03-13T13:40:19;96747.72;;;20.76;47.09
28312;BME280;15572;48.810;9.148;2023-03-13T13:45:27;96735.91;;;20.75;46.15
28312;BME280;15572;48.810;9.148;2023-03-13T13:50:27;96721.50;;;20.83;46.79
28312;BME280;15572;48.810;9.148;2023-03-13T13:55:40;96705.88;;;20.79;46.95
28312;BME280;15572;48.810;9.148;2023-03-13T14:00:39;96709.75;;;20.96;46.80
28312;BME280;15572;48.810;9.148;2023-03-13T14:05:39;96699.59;;;21.11;46.69
28312;BME280;15572;48.810;9.148;2023-03-13T14:10:39;96688.31;;;21.12;46.06
28312;BME280;15572;48.810;9.148;2023-03-13T14:15:36;96675.31;;;21.18;45.91
28312;BME280;15572;48.810;9.148;2023-03-13T14:20:33;96660.97;;;21.02;45.92
28312;BME280;15572;48.810;9.148;2023-03-13T14:25:43;96652.47;;;21.50;44.78
28312;BME280;15572;48.810;9.148;2023-03-13T14:30:42;96640.19;;;21.88;43.67
28312;BME280;15572;48.810;9.148;2023-03-13T14:35:38;96621.59;;;22.48;43.10
28312;BME280;15572;48.810;9.148;2023-03-13T14:40:37;96610.56;;;22.35;41.46
28312;BME280;15572;48.810;9.148;2023-03-13T14:45:35;96594.06;;;22.21;40.93
28312;BME280;15572;48.810;9.148;2023-03-13T14:50:33;96578.63;;;22.34;40.83
28312;BME280;15572;48.810;9.148;2023-03-13T14:55:32;96588.41;;;22.40;40.59
28312;BME280;15572;48.810;9.148;2023-03-13T15:00:35;96557.38;;;21.98;41.32
28312;BME280;15572;48.810;9.148;2023-03-13T15:05:35;96548.06;;;22.08;41.37
28312;BME280;15572;48.810;9.148;2023-03-13T15:10:33;96542.22;;;22.23;41.45
28312;BME280;15572;48.810;9.148;2023-03-13T15:15:30;96515.31;;;22.06;41.79
28312;BME280;15572;48.810;9.148;2023-03-13T15:20:28;96491.16;;;21.90;42.47
28312;BME280;15572;48.810;9.148;2023-03-13T15:25:25;96474.50;;;22.08;42.37
28312;BME280;15572;48.810;9.148;2023-03-13T15:30:21;96462.38;;;22.32;41.83
28312;BME280;15572;48.810;9.148;2023-03-13T15:35:25;96442.00;;;21.97;42.40
28312;BME280;15572;48.810;9.148;2023-03-13T15:40:24;96444.34;;;21.90;42.78
28312;BME280;15572;48.810;9.148;2023-03-13T15:45:21;96433.38;;;22.12;42.45
28312;BME280;15572;48.810;9.148;2023-03-13T15:50:19;96419.94;;;22.33;42.08
28312;BME280;15572;48.810;9.148;2023-03-13T15:55:20;96420.16;;;21.87;42.73
28312;BME280;15572;48.810;9.148;2023-03-13T16:00:20;96403.81;;;22.04;42.52
28312;BME280;15572;48.810;9.148;2023-03-13T16:05:17;96401.47;;;22.11;42.26
28312;BME280;15572;48.810;9.148;2023-03-13T16:10:15;96385.31;;;21.82;42.57
28312;BME280;15572;48.810;9.148;2023-03-13T16:15:12;96374.94;;;21.79;42.66
28312;BME280;15572;48.810;9.148;2023-03-13T16:20:15;96367.13;;;21.59;43.38
28312;BME280;15572;48.810;9.148;2023-03-13T16:25:13;96360.78;;;21.22;44.28
28312;BME280;15572;48.810;9.148;2023-03-13T16:30:14;96349.25;;;21.07;44.79
28312;BME280;15572;48.810;9.148;2023-03-13T16:35:13;96341.34;;;20.78;45.87
28312;BME280;15572;48.810;9.148;2023-03-13T16:40:14;96342.56;;;20.72;46.40
28312;BME280;15572;48.810;9.148;2023-03-13T16:45:12;96341.13;;;20.61;46.92
28312;BME280;15572;48.810;9.148;2023-03-13T16:50:16;96356.16;;;20.36;47.79
28312;BME280;15572;48.810;9.148;2023-03-13T16:55:14;96343.69;;;20.25;48.58
28312;BME280;15572;48.810;9.148;2023-03-13T17:00:17;96334.13;;;20.08;49.23
28312;BME280;15572;48.810;9.148;2023-03-13T17:05:16;96332.75;;;19.92;49.88
28312;BME280;15572;48.810;9.148;2023-03-13T17:10:18;96326.38;;;19.78;50.72
28312;BME280;15572;48.810;9.148;2023-03-13T17:15:15;96312.59;;;19.64;51.37
28312;BME280;15572;48.810;9.148;2023-03-13T17:20:13;96316.84;;;19.57;51.81
28312;BME280;15572;48.810;9.148;2023-03-13T17:25:11;96298.38;;;19.44;52.22
28312;BME280;15572;48.810;9.148;2023-03-13T17:30:18;96295.38;;;19.40;52.57
28312;BME280;15572;48.810;9.148;2023-03-13T17:35:15;96285.69;;;19.29;53.01
28312;BME280;15572;48.810;9.148;2023-03-13T17:40:19;96271.09;;;19.15;53.87
28312;BME280;15572;48.810;9.148;2023-03-13T17:45:16;96264.41;;;19.02;54.49
28312;BME280;15572;48.810;9.148;2023-03-13T17:50:15;96242.88;;;18.96;54.61
28312;BME280;15572;48.810;9.148;2023-03-13T17:55:11;96240.03;;;18.82;55.05
28312;BME280;15572;48.810;9.148;2023-03-13T18:00:20;96222.91;;;18.71;55.67
28312;BME280;15572;48.810;9.148;2023-03-13T18:05:17;96210.25;;;18.57;56.22
28312;BME280;15572;48.810;9.148;2023-03-13T18:10:19;96192.88;;;18.42;56.95
28312;BME280;15572;48.810;9.148;2023-03-13T18:15:18;96181.06;;;18.23;57.73
28312;BME280;15572;48.810;9.148;2023-03-13T18:20:16;96177.41;;;18.09;58.64
28312;BME280;15572;48.810;9.148;2023-03-13T18:25:13;96210.19;;;17.90;59.55
28312;BME280;15572;48.810;9.148;2023-03-13T18:30:14;96228.56;;;17.61;64.21
28312;BME280;15572;48.810;9.148;2023-03-13T18:35:13;96318.56;;;17.18;67.62
28312;BME280;15572;48.810;9.148;2023-03-13T18:40:14;96310.00;;;15.96;82.30
28312;BME280;15572;48.810;9.148;2023-03-13T18:45:13;96405.56;;;14.94;100.00
28312;BME280;15572;48.810;9.148;2023-03-13T18:50:17;96385.75;;;13.72;100.00
28312;BME280;15572;48.810;9.148;2023-03-13T18:55:16;96306.50;;;13.22;100.00
28312;BME280;15572;48.810;9.148;2023-03-13T19:00:15;96349.78;;;13.06;100.00
28312;BME280;15572;48.810;9.148;2023-03-13T19:05:12;96266.22;;;12.87;100.00
28312;BME280;15572;48.810;9.148;2023-03-13T19:10:18;96199.28;;;12.71;100.00
28312;BME280;15572;48.810;9.148;2023-03-13T19:15:16;96240.75;;;12.66;100.00
28312;BME280;15572;48.810;9.148;2023-03-13T19:20:14;96283.72;;;12.74;100.00
28312;BME280;15572;48.810;9.148;2023-03-13T19:25:12;96293.19;;;12.72;100.00
28312;BME280;15572;48.810;9.148;2023-03-13T19:30:16;96286.69;;;12.73;100.00
28312;BME280;15572;48.810;9.148;2023-03-13T19:35:13;96323.06;;;12.72;100.00
28312;BME280;15572;48.810;9.148;2023-03-13T19:40:16;96351.53;;;12.69;100.00
28312;BME280;15572;48.810;9.148;2023-03-13T19:45:13;96427.78;;;12.68;100.00
28312;BME280;15572;48.810;9.148;2023-03-13T19:50:17;96396.56;;;12.65;100.00
28312;BME280;15572;48.810;9.148;2023-03-13T19:55:14;96411.81;;;12.49;100.00
28312;BME280;15572;48.810;9.148;2023-03-13T20:00:18;96472.84;;;12.47;100.00
28312;BME280;15572;48.810;9.148;2023-03-13T20:05:32;96543.91;;;12.44;100.00
28312;BME280;15572;48.810;9.148;2023-03-13T20:15:26;96632.03;;;11.56;100.00
28312;BME280;15572;48.810;9.148;2023-03-13T20:20:23;96634.06;;;10.21;100.00
28312;BME280;15572;48.810;9.148;2023-03-13T20:25:21;96667.59;;;9.72;100.00
28312;BME280;15572;48.810;9.148;2023-03-13T20:30:18;96666.84;;;9.47;100.00
28312;BME280;15572;48.810;9.148;2023-03-13T20:35:15;96657.41;;;9.38;100.00
28312;BME280;15572;48.810;9.148;2023-03-13T20:40:12;96676.84;;;9.28;100.00
28312;BME280;15572;48.810;9.148;2023-03-13T20:45:10;96672.41;;;9.34;100.00
28312;BME280;15572;48.810;9.148;2023-03-13T20:50:08;96684.09;;;9.27;100.00
28312;BME280;15572;48.810;9.148;2023-03-13T20:55:05;96668.94;;;9.26;100.00
28312;BME280;15572;48.810;9.148;2023-03-13T21:00:03;96650.41;;;9.30;100.00
28312;BME280;15572;48.810;9.148;2023-03-13T21:05:02;96658.31;;;9.32;100.00
28312;BME280;15572;48.810;9.148;2023-03-13T21:09:59;96649.22;;;9.26;100.00
28312;BME280;15572;48.810;9.148;2023-03-13T21:14:55;96579.56;;;9.35;100.00
28312;BME280;15572;48.810;9.148;2023-03-13T21:19:53;96667.09;;;9.45;100.00
28312;BME280;15572;48.810;9.148;2023-03-13T21:24:50;96707.22;;;9.42;100.00
28312;BME280;15572;48.810;9.148;2023-03-13T21:29:47;96702.28;;;9.39;100.00
28312;BME280;15572;48.810;9.148;2023-03-13T21:34:45;96700.53;;;9.44;100.00
28312;BME280;15572;48.810;9.148;2023-03-13T21:39:41;96635.88;;;9.49;100.00
28312;BME280;15572;48.810;9.148;2023-03-13T21:44:39;96602.53;;;9.55;100.00
28312;BME280;15572;48.810;9.148;2023-03-13T21:49:36;96619.34;;;9.57;100.00
28312;BME280;15572;48.810;9.148;2023-03-13T21:54:32;96618.22;;;9.47;100.00
28312;BME280;15572;48.810;9.148;2023-03-13T21:59:29;96592.25;;;9.46;100.00
28312;BME280;15572;48.810;9.148;2023-03-13T22:04:27;96535.31;;;9.47;100.00
28312;BME280;15572;48.810;9.148;2023-03-13T22:09:24;96509.75;;;9.50;100.00
28312;BME280;15572;48.810;9.148;2023-03-13T22:14:20;96508.44;;;9.52;100.00
28312;BME280;15572;48.810;9.148;2023-03-13T22:19:19;96547.91;;;9.53;100.00
28312;BME280;15572;48.810;9.148;2023-03-13T22:24:17;96521.00;;;9.47;100.00
28312;BME280;15572;48.810;9.148;2023-03-13T22:29:13;96496.69;;;9.47;100.00
28312;BME280;15572;48.810;9.148;2023-03-13T22:34:09;96467.44;;;9.44;100.00
28312;BME280;15572;48.810;9.148;2023-03-13T22:39:06;96459.91;;;9.46;100.00
28312;BME280;15572;48.810;9.148;2023-03-13T22:44:04;96449.38;;;9.44;100.00
28312;BME280;15572;48.810;9.148;2023-03-13T22:49:00;96455.34;;;9.46;100.00
28312;BME280;15572;48.810;9.148;2023-03-13T22:53:57;96482.00;;;9.43;100.00
28312;BME280;15572;48.810;9.148;2023-03-13T22:58:53;96500.91;;;9.43;100.00
28312;BME280;15572;48.810;9.148;2023-03-13T23:03:51;96508.78;;;9.44;100.00
28312;BME280;15572;48.810;9.148;2023-03-13T23:08:48;96525.22;;;9.43;100.00
28312;BME280;15572;48.810;9.148;2023-03-13T23:13:44;96541.19;;;9.44;100.00
28312;BME280;15572;48.810;9.148;2023-03-13T23:18:41;96546.94;;;9.48;100.00
28312;BME280;15572;48.810;9.148;2023-03-13T23:23:39;96522.63;;;9.48;100.00
28312;BME280;15572;48.810;9.148;2023-03-13T23:28:37;96456.56;;;9.50;100.00
28312;BME280;15572;48.810;9.148;2023-03-13T23:33:34;96444.91;;;9.50;100.00
28312;BME280;15572;48.810;9.148;2023-03-13T23:38:30;96507.63;;;9.52;100.00
28312;BME280;15572;48.810;9.148;2023-03-13T23:43:28;96527.16;;;9.65;100.00
28312;BME280;15572;48.810;9.148;2023-03-13T23:48:24;96523.03;;;9.63;100.00
28312;BME280;15572;48.810;9.148;2023-03-13T23:53:21;96521.38;;;9.62;100.00
28312;BME280;15572;48.810;9.148;2023-03-13T23:58:18;96495.19;;;9.62;100.00
